X  Close Metar Aviation Weather Data     YMML Melbourne International Airport
Temperature
14°C Temperature
12°C Dewpoint
88% Humidity



Wind
10 KM/H
6 MPH
3 M/S
5 KTS



300°
WNW
Current Conditions

Clear Clear
Pressure 1014.9 (hPa) - 29.97 (inHg)
Visibility 6 (mile) - 9.7 (km)
Airport
Airport-code YMML

Location: Melbourne International Airport
Distance: 18 (km)

Metar:
YMML 291800Z 30005KT CAVOK 14/12 Q1015

Time: 01-03-2024 05:00 AEDT